Latest Weather Observations for Point Wilson

IDV60801

Issued at 8:42 pm EDT Thursday 21 February 2019 (issued every 10 minutes, with the page automatically refreshed every 10 minutes)

About weather observations | Map of weather stations | Latest weather observations for VIC | Other Formats
Station Details ID: 087166 Name: POINT WILSON Lat: -38.10 Lon: 144.54 Height: 18.0 m
Data from the previous 72 hours. | See also: Recent months at Point Wilson
Date/Time
EDT
Temp
°C
App
Temp
°C
Dew
Point
°C
Rel
Hum
%
Delta-T
°C
Wind Press
QNH
hPa
Press
MSL
hPa
Rain since
9am
mm
Dir  Spd
km/h
Gust
km/h
Spd
kts
Gust
kts
21/08:30pm - - - - - S 24 30 13 16 - - -
21/08:00pm - - - - - S 24 28 13 15 - - -
21/07:30pm - - - - - S 26 32 14 17 - - -
21/07:00pm - - - - - S 24 28 13 15 - - -
21/06:30pm - - - - - S 24 28 13 15 - - -
21/06:00pm - - - - - S 26 32 14 17 - - -
21/05:30pm - - - - - S 24 30 13 16 - - -
21/05:00pm - - - - - S 26 32 14 17 - - -
21/04:30pm - - - - - S 26 35 14 19 - - -
21/04:00pm - - - - - S 26 32 14 17 - - -
21/03:30pm - - - - - S 24 30 13 16 - - -
21/03:00pm - - - - - SSW 24 32 13 17 - - -
21/02:30pm - - - - - S 20 24 11 13 - - -
21/02:00pm - - - - - S 24 30 13 16 - - -
21/01:30pm - - - - - SSW 28 33 15 18 - - -
21/01:00pm - - - - - SSW 15 20 8 11 - - -
21/12:30pm - - - - - SSW 24 28 13 15 - - -
21/12:00pm - - - - - SSW 20 26 11 14 - - -
21/11:30am - - - - - SW 13 17 7 9 - - -
21/11:00am - - - - - SW 19 24 10 13 - - -
21/10:30am - - - - - WSW 15 22 8 12 - - -
21/10:00am - - - - - SW 20 26 11 14 - - -
21/09:30am - - - - - SW 24 28 13 15 - - -
21/09:00am - - - - - WSW 22 30 12 16 - - -
21/08:30am - - - - - WSW 24 28 13 15 - - -
21/08:00am - - - - - SW 24 30 13 16 - - -
21/07:30am - - - - - SW 20 24 11 13 - - -
21/07:00am - - - - - SW 22 28 12 15 - - -
21/06:30am - - - - - WSW 17 20 9 11 - - -
21/06:00am - - - - - WNW 19 22 10 12 - - -
21/05:30am - - - - - WSW 17 20 9 11 - - -
21/05:00am - - - - - WSW 17 20 9 11 - - -
21/04:30am - - - - - WSW 19 22 10 12 - - -
21/04:00am - - - - - WNW 17 20 9 11 - - -
21/03:30am - - - - - WNW 19 20 10 11 - - -
21/03:00am - - - - - WNW 17 20 9 11 - - -
21/02:30am - - - - - WSW 20 26 11 14 - - -
21/02:00am - - - - - WSW 19 26 10 14 - - -
21/01:30am - - - - - WSW 17 20 9 11 - - -
21/01:00am - - - - - WSW 15 19 8 10 - - -
21/12:30am - - - - - SW 19 22 10 12 - - -
21/12:00am - - - - - SW 17 20 9 11 - - -
 
Date/Time
EDT
Temp
°C
App
Temp
°C
Dew
Point
°C
Rel
Hum
%
Delta-T
°C
Wind Press
QNH
hPa
Press
MSL
hPa
Rain since
9am
mm
Dir  Spd
km/h
Gust
km/h
Spd
kts
Gust
kts
20/11:30pm - - - - - SW 24 28 13 15 - - -
20/11:00pm - - - - - SSW 32 35 17 19 - - -
20/10:30pm - - - - - SW 37 43 20 23 - - -
20/10:00pm - - - - - SW 35 39 19 21 - - -
20/09:30pm - - - - - WSW 26 32 14 17 - - -
20/09:00pm - - - - - WSW 28 30 15 16 - - -
20/08:30pm - - - - - WSW 30 35 16 19 - - -
20/08:00pm - - - - - SSW 20 30 11 16 - - -
20/07:30pm - - - - - S 17 19 9 10 - - -
20/07:00pm - - - - - S 19 20 10 11 - - -
20/06:30pm - - - - - SSW 17 19 9 10 - - -
20/06:00pm - - - - - SSW 20 24 11 13 - - -
20/05:30pm - - - - - SSW 24 28 13 15 - - -
20/05:00pm - - - - - SSW 20 30 11 16 - - -
20/04:30pm - - - - - SSW 11 15 6 8 - - -
20/04:00pm - - - - - S 13 19 7 10 - - -
20/03:30pm - - - - - SSW 17 20 9 11 - - -
20/03:00pm - - - - - SW 28 37 15 20 - - -
20/02:30pm - - - - - WSW 22 28 12 15 - - -
20/02:00pm - - - - - N 6 17 3 9 - - -
20/01:30pm - - - - - SE 11 15 6 8 - - -
20/01:00pm - - - - - SW 6 9 3 5 - - -
20/12:30pm - - - - - WSW 13 19 7 10 - - -
20/12:00pm - - - - - WSW 22 32 12 17 - - -
20/11:30am - - - - - WSW 13 17 7 9 - - -
20/11:00am - - - - - W 15 20 8 11 - - -
20/10:30am - - - - - WSW 17 20 9 11 - - -
20/10:00am - - - - - WSW 22 28 12 15 - - -
20/09:30am - - - - - W 24 28 13 15 - - -
20/09:00am - - - - - WNW 20 26 11 14 - - -
20/08:30am - - - - - WNW 19 24 10 13 - - -
20/08:00am - - - - - WNW 20 24 11 13 - - -
20/07:30am - - - - - NW 19 20 10 11 - - -
20/07:00am - - - - - NW 15 20 8 11 - - -
20/06:30am - - - - - WNW 20 22 11 12 - - -
20/06:00am - - - - - WNW 19 24 10 13 - - -
20/05:30am - - - - - WNW 19 22 10 12 - - -
20/05:00am - - - - - WNW 20 24 11 13 - - -
20/04:30am - - - - - WNW 20 22 11 12 - - -
20/04:00am - - - - - WNW 19 22 10 12 - - -
20/03:30am - - - - - WNW 17 20 9 11 - - -
20/03:00am - - - - - WNW 17 19 9 10 - - -
20/02:30am - - - - - WNW 17 20 9 11 - - -
20/02:00am - - - - - W 17 20 9 11 - - -
20/01:30am - - - - - SW 20 22 11 12 - - -
20/01:00am - - - - - SW 19 24 10 13 - - -
20/12:30am - - - - - SW 20 24 11 13 - - -
20/12:00am - - - - - W 15 19 8 10 - - -
 
Date/Time
EDT
Temp
°C
App
Temp
°C
Dew
Point
°C
Rel
Hum
%
Delta-T
°C
Wind Press
QNH
hPa
Press
MSL
hPa
Rain since
9am
mm
Dir  Spd
km/h
Gust
km/h
Spd
kts
Gust
kts
19/11:30pm - - - - - WSW 15 20 8 11 - - -
19/11:00pm - - - - - SW 13 19 7 10 - - -
19/10:30pm - - - - - SSW 15 20 8 11 - - -
19/10:00pm - - - - - S 17 22 9 12 - - -
19/09:30pm - - - - - S 19 22 10 12 - - -
19/09:00pm - - - - - S 19 24 10 13 - - -
19/08:30pm - - - - - S 24 28 13 15 - - -
19/08:00pm - - - - - S 28 32 15 17 - - -
19/07:30pm - - - - - SSW 30 35 16 19 - - -
19/07:00pm - - - - - S 30 35 16 19 - - -
19/06:30pm - - - - - SSW 32 37 17 20 - - -
19/06:00pm - - - - - SSW 32 39 17 21 - - -
19/05:30pm - - - - - S 30 35 16 19 - - -
19/05:00pm - - - - - SSW 28 35 15 19 - - -
19/04:30pm - - - - - S 26 32 14 17 - - -
19/04:00pm - - - - - SSW 30 35 16 19 - - -
19/03:30pm - - - - - S 20 28 11 15 - - -
19/03:00pm - - - - - SSW 28 32 15 17 - - -
19/02:30pm - - - - - S 24 32 13 17 - - -
19/02:00pm - - - - - S 24 30 13 16 - - -
19/01:30pm - - - - - SSW 19 20 10 11 - - -
19/01:00pm - - - - - SSW 30 35 16 19 - - -
19/12:30pm - - - - - SW 17 24 9 13 - - -
19/12:00pm - - - - - WSW 17 22 9 12 - - -
19/11:30am - - - - - W 20 26 11 14 - - -
19/11:00am - - - - - W 22 28 12 15 - - -
19/10:30am - - - - - W 24 35 13 19 - - -
19/10:00am - - - - - WSW 22 28 12 15 - - -
19/09:30am - - - - - W 22 30 12 16 - - -
19/09:00am - - - - - W 26 30 14 16 - - -
19/08:30am - - - - - W 26 30 14 16 - - -
19/08:00am - - - - - WNW 24 26 13 14 - - -
19/07:30am - - - - - W 26 32 14 17 - - -
19/07:00am - - - - - W 28 33 15 18 - - -
19/06:30am - - - - - W 26 32 14 17 - - -
19/06:00am - - - - - WSW 28 32 15 17 - - -
19/05:30am - - - - - W 26 32 14 17 - - -
19/05:00am - - - - - W 28 33 15 18 - - -
19/04:30am - - - - - W 28 33 15 18 - - -
19/04:00am - - - - - WSW 24 32 13 17 - - -
19/03:30am - - - - - WSW 26 32 14 17 - - -
19/03:00am - - - - - WNW 19 22 10 12 - - -
19/02:30am - - - - - WNW 20 22 11 12 - - -
19/02:00am - - - - - WNW 20 24 11 13 - - -
19/01:30am - - - - - WNW 19 22 10 12 - - -
19/01:00am - - - - - WSW 20 26 11 14 - - -
19/12:30am - - - - - WSW 22 28 12 15 - - -
19/12:00am - - - - - WSW 22 28 12 15 - - -
 
Date/Time
EDT
Temp
°C
App
Temp
°C
Dew
Point
°C
Rel
Hum
%
Delta-T
°C
Wind Press
QNH
hPa
Press
MSL
hPa
Rain since
9am
mm
Dir  Spd
km/h
Gust
km/h
Spd
kts
Gust
kts
18/11:30pm - - - - - WSW 28 32 15 17 - - -
18/11:00pm - - - - - WSW 32 39 17 21 - - -
18/10:30pm - - - - - SW 32 39 17 21 - - -
18/10:00pm - - - - - WSW 32 39 17 21 - - -
18/09:30pm - - - - - SW 28 32 15 17 - - -
18/09:00pm - - - - - WSW 33 43 18 23 - - -

Other formats

Comma delimited format used in spreadsheet applications
http://www.bom.gov.au/fwo/IDV60801/IDV60801.94847.axf

JavaScript Object Notation format (JSON) in row-major order
http://www.bom.gov.au/fwo/IDV60801/IDV60801.94847.json

Data quality

Most of these data are generated automatically and are frequently updated. Quality checks on data are not normally performed. It is possible for incorrect values to appear. Refer to information at About Latest Weather Observations and please check the disclaimer before using these data.